sensor_id;sensor_type;location;lat;lon;timestamp;temperature;humidity
44705;DHT22;30431;48.520;9.046;2023-01-05T00:01:56;10.70;99.90
44705;DHT22;30431;48.520;9.046;2023-01-05T00:04:23;10.70;99.90
44705;DHT22;30431;48.520;9.046;2023-01-05T00:06:50;10.70;99.90
44705;DHT22;30431;48.520;9.046;2023-01-05T00:09:18;10.70;99.90
44705;DHT22;30431;48.520;9.046;2023-01-05T00:11:45;10.70;99.90
44705;DHT22;30431;48.520;9.046;2023-01-05T00:14:32;10.70;99.90
44705;DHT22;30431;48.520;9.046;2023-01-05T00:17:22;10.70;99.90
44705;DHT22;30431;48.520;9.046;2023-01-05T00:20:19;10.70;99.90
44705;DHT22;30431;48.520;9.046;2023-01-05T00:23:07;10.70;99.90
44705;DHT22;30431;48.520;9.046;2023-01-05T00:25:39;10.70;99.90
44705;DHT22;30431;48.520;9.046;2023-01-05T00:34:13;10.80;99.90
44705;DHT22;30431;48.520;9.046;2023-01-05T00:39:43;10.80;99.90
44705;DHT22;30431;48.520;9.046;2023-01-05T00:42:10;10.80;99.90
44705;DHT22;30431;48.520;9.046;2023-01-05T00:44:38;10.90;99.90
44705;DHT22;30431;48.520;9.046;2023-01-05T00:47:05;10.80;99.90
44705;DHT22;30431;48.520;9.046;2023-01-05T00:49:31;10.80;99.90
44705;DHT22;30431;48.520;9.046;2023-01-05T00:52:01;10.70;99.90
44705;DHT22;30431;48.520;9.046;2023-01-05T00:54:30;10.70;99.90
44705;DHT22;30431;48.520;9.046;2023-01-05T00:56:58;10.70;99.90
44705;DHT22;30431;48.520;9.046;2023-01-05T00:59:30;10.70;99.90
44705;DHT22;30431;48.520;9.046;2023-01-05T01:01:57;10.60;99.90
44705;DHT22;30431;48.520;9.046;2023-01-05T01:04:25;10.60;99.90
44705;DHT22;30431;48.520;9.046;2023-01-05T01:06:55;10.60;99.90
44705;DHT22;30431;48.520;9.046;2023-01-05T01:09:25;10.60;99.90
44705;DHT22;30431;48.520;9.046;2023-01-05T01:11:57;10.60;99.90
44705;DHT22;30431;48.520;9.046;2023-01-05T01:14:26;10.60;99.90
44705;DHT22;30431;48.520;9.046;2023-01-05T01:16:54;10.60;99.90
44705;DHT22;30431;48.520;9.046;2023-01-05T01:19:24;10.60;99.90
44705;DHT22;30431;48.520;9.046;2023-01-05T01:21:52;10.60;99.90
44705;DHT22;30431;48.520;9.046;2023-01-05T01:24:22;10.60;99.90
44705;DHT22;30431;48.520;9.046;2023-01-05T01:26:55;10.60;99.90
44705;DHT22;30431;48.520;9.046;2023-01-05T01:29:25;10.60;99.90
44705;DHT22;30431;48.520;9.046;2023-01-05T01:31:55;10.60;99.90
44705;DHT22;30431;48.520;9.046;2023-01-05T01:34:27;10.60;99.90
44705;DHT22;30431;48.520;9.046;2023-01-05T01:36:57;10.60;99.90
44705;DHT22;30431;48.520;9.046;2023-01-05T01:39:30;10.60;99.90
44705;DHT22;30431;48.520;9.046;2023-01-05T01:42:05;10.60;99.90
44705;DHT22;30431;48.520;9.046;2023-01-05T01:45:11;10.60;99.90
44705;DHT22;30431;48.520;9.046;2023-01-05T01:47:42;10.60;99.90
44705;DHT22;30431;48.520;9.046;2023-01-05T01:52:43;10.60;99.90
44705;DHT22;30431;48.520;9.046;2023-01-05T01:55:11;10.60;99.90
44705;DHT22;30431;48.520;9.046;2023-01-05T01:57:42;10.60;99.90
44705;DHT22;30431;48.520;9.046;2023-01-05T02:00:13;10.60;99.90
44705;DHT22;30431;48.520;9.046;2023-01-05T02:02:48;10.70;99.90
44705;DHT22;30431;48.520;9.046;2023-01-05T02:05:27;10.70;99.90
44705;DHT22;30431;48.520;9.046;2023-01-05T02:07:55;10.70;99.90
44705;DHT22;30431;48.520;9.046;2023-01-05T02:13:42;10.70;99.90
44705;DHT22;30431;48.520;9.046;2023-01-05T02:16:03;10.70;99.90
44705;DHT22;30431;48.520;9.046;2023-01-05T02:25:05;10.70;99.90
44705;DHT22;30431;48.520;9.046;2023-01-05T02:36:17;10.70;99.90
44705;DHT22;30431;48.520;9.046;2023-01-05T02:39:11;10.70;99.90
44705;DHT22;30431;48.520;9.046;2023-01-05T02:41:48;10.70;99.90
44705;DHT22;30431;48.520;9.046;2023-01-05T02:44:21;10.70;99.90
44705;DHT22;30431;48.520;9.046;2023-01-05T02:47:04;10.70;99.90
44705;DHT22;30431;48.520;9.046;2023-01-05T02:49:36;10.70;99.90
44705;DHT22;30431;48.520;9.046;2023-01-05T02:52:05;10.80;99.90
44705;DHT22;30431;48.520;9.046;2023-01-05T02:54:42;10.80;99.90
44705;DHT22;30431;48.520;9.046;2023-01-05T02:57:17;10.80;99.90
44705;DHT22;30431;48.520;9.046;2023-01-05T02:59:49;10.80;99.90
44705;DHT22;30431;48.520;9.046;2023-01-05T03:02:25;10.80;99.90
44705;DHT22;30431;48.520;9.046;2023-01-05T03:05:07;10.80;99.90
44705;DHT22;30431;48.520;9.046;2023-01-05T03:07:41;10.80;99.90
44705;DHT22;30431;48.520;9.046;2023-01-05T03:10:16;10.80;99.90
44705;DHT22;30431;48.520;9.046;2023-01-05T03:13:05;10.80;99.90
44705;DHT22;30431;48.520;9.046;2023-01-05T03:15:52;10.90;99.90
44705;DHT22;30431;48.520;9.046;2023-01-05T03:18:32;10.90;99.90
44705;DHT22;30431;48.520;9.046;2023-01-05T03:21:02;10.90;99.90
44705;DHT22;30431;48.520;9.046;2023-01-05T03:23:30;10.90;99.90
44705;DHT22;30431;48.520;9.046;2023-01-05T03:26:16;10.90;99.90
44705;DHT22;30431;48.520;9.046;2023-01-05T03:29:04;10.90;99.90
44705;DHT22;30431;48.520;9.046;2023-01-05T03:31:57;10.90;99.90
44705;DHT22;30431;48.520;9.046;2023-01-05T03:40:50;11.00;99.90
44705;DHT22;30431;48.520;9.046;2023-01-05T03:43:19;11.00;99.90
44705;DHT22;30431;48.520;9.046;2023-01-05T03:45:56;11.00;99.90
44705;DHT22;30431;48.520;9.046;2023-01-05T03:48:28;11.10;99.90
44705;DHT22;30431;48.520;9.046;2023-01-05T03:50:56;11.10;99.90
44705;DHT22;30431;48.520;9.046;2023-01-05T03:53:24;11.10;99.90
44705;DHT22;30431;48.520;9.046;2023-01-05T03:55:56;11.10;99.90
44705;DHT22;30431;48.520;9.046;2023-01-05T03:58:25;11.00;99.90
44705;DHT22;30431;48.520;9.046;2023-01-05T04:00:55;11.00;99.90
44705;DHT22;30431;48.520;9.046;2023-01-05T04:03:25;11.00;99.90
44705;DHT22;30431;48.520;9.046;2023-01-05T04:06:02;11.10;99.90
44705;DHT22;30431;48.520;9.046;2023-01-05T04:08:31;11.00;99.90
44705;DHT22;30431;48.520;9.046;2023-01-05T04:13:39;11.10;99.90
44705;DHT22;30431;48.520;9.046;2023-01-05T04:16:06;11.10;99.90
44705;DHT22;30431;48.520;9.046;2023-01-05T04:18:40;11.10;99.90
44705;DHT22;30431;48.520;9.046;2023-01-05T04:21:12;11.10;99.90
44705;DHT22;30431;48.520;9.046;2023-01-05T04:23:39;11.10;99.90
44705;DHT22;30431;48.520;9.046;2023-01-05T04:26:07;11.10;99.90
44705;DHT22;30431;48.520;9.046;2023-01-05T04:28:35;11.10;99.90
44705;DHT22;30431;48.520;9.046;2023-01-05T04:31:02;11.10;99.90
44705;DHT22;30431;48.520;9.046;2023-01-05T04:33:31;11.10;99.90
44705;DHT22;30431;48.520;9.046;2023-01-05T04:36:00;11.10;99.90
44705;DHT22;30431;48.520;9.046;2023-01-05T04:38:29;11.10;99.90
44705;DHT22;30431;48.520;9.046;2023-01-05T04:40:59;11.10;99.90
44705;DHT22;30431;48.520;9.046;2023-01-05T04:43:27;11.10;99.90
44705;DHT22;30431;48.520;9.046;2023-01-05T04:46:03;11.10;99.90
44705;DHT22;30431;48.520;9.046;2023-01-05T04:48:36;11.10;99.90
44705;DHT22;30431;48.520;9.046;2023-01-05T04:51:06;11.10;99.90
44705;DHT22;30431;48.520;9.046;2023-01-05T04:53:36;11.10;99.90
44705;DHT22;30431;48.520;9.046;2023-01-05T04:56:05;11.20;99.90
44705;DHT22;30431;48.520;9.046;2023-01-05T04:58:38;11.20;99.90
44705;DHT22;30431;48.520;9.046;2023-01-05T05:01:08;11.20;99.90
44705;DHT22;30431;48.520;9.046;2023-01-05T05:03:37;11.10;99.90
44705;DHT22;30431;48.520;9.046;2023-01-05T05:06:08;11.10;99.90
44705;DHT22;30431;48.520;9.046;2023-01-05T05:08:35;11.20;99.90
44705;DHT22;30431;48.520;9.046;2023-01-05T05:11:04;11.10;99.90
44705;DHT22;30431;48.520;9.046;2023-01-05T05:13:34;11.10;99.90
44705;DHT22;30431;48.520;9.046;2023-01-05T05:16:04;11.10;99.90
44705;DHT22;30431;48.520;9.046;2023-01-05T05:18:32;11.10;99.90
44705;DHT22;30431;48.520;9.046;2023-01-05T05:21:00;11.00;99.90
44705;DHT22;30431;48.520;9.046;2023-01-05T05:23:36;11.10;99.90
44705;DHT22;30431;48.520;9.046;2023-01-05T05:26:06;11.10;99.90
44705;DHT22;30431;48.520;9.046;2023-01-05T05:28:33;11.10;99.90
44705;DHT22;30431;48.520;9.046;2023-01-05T05:31:04;11.10;99.90
44705;DHT22;30431;48.520;9.046;2023-01-05T05:33:33;11.00;99.90
44705;DHT22;30431;48.520;9.046;2023-01-05T05:36:06;11.10;99.90
44705;DHT22;30431;48.520;9.046;2023-01-05T05:38:33;11.00;99.90
44705;DHT22;30431;48.520;9.046;2023-01-05T05:41:00;11.10;99.90
44705;DHT22;30431;48.520;9.046;2023-01-05T05:43:27;11.00;99.90
44705;DHT22;30431;48.520;9.046;2023-01-05T05:45:54;11.00;99.90
44705;DHT22;30431;48.520;9.046;2023-01-05T05:48:24;11.10;99.90
44705;DHT22;30431;48.520;9.046;2023-01-05T05:50:51;11.10;99.90
44705;DHT22;30431;48.520;9.046;2023-01-05T05:53:20;11.10;99.90
44705;DHT22;30431;48.520;9.046;2023-01-05T05:55:52;11.00;99.90
44705;DHT22;30431;48.520;9.046;2023-01-05T05:58:19;11.00;99.90
44705;DHT22;30431;48.520;9.046;2023-01-05T06:00:49;11.10;99.90
44705;DHT22;30431;48.520;9.046;2023-01-05T06:03:16;11.00;99.90
44705;DHT22;30431;48.520;9.046;2023-01-05T06:05:45;11.10;99.90
44705;DHT22;30431;48.520;9.046;2023-01-05T06:08:12;11.10;99.90
44705;DHT22;30431;48.520;9.046;2023-01-05T06:10:42;11.00;99.90
44705;DHT22;30431;48.520;9.046;2023-01-05T06:13:09;11.10;99.90
44705;DHT22;30431;48.520;9.046;2023-01-05T06:15:38;11.10;99.90
44705;DHT22;30431;48.520;9.046;2023-01-05T06:18:05;11.10;99.90
44705;DHT22;30431;48.520;9.046;2023-01-05T06:20:32;11.10;99.90
44705;DHT22;30431;48.520;9.046;2023-01-05T06:23:01;11.00;99.90
44705;DHT22;30431;48.520;9.046;2023-01-05T06:25:31;11.00;99.90
44705;DHT22;30431;48.520;9.046;2023-01-05T06:27:59;11.10;99.90
44705;DHT22;30431;48.520;9.046;2023-01-05T06:30:26;11.00;99.90
44705;DHT22;30431;48.520;9.046;2023-01-05T06:32:56;11.10;99.90
44705;DHT22;30431;48.520;9.046;2023-01-05T06:35:23;11.10;99.90
44705;DHT22;30431;48.520;9.046;2023-01-05T06:37:50;11.10;99.90
44705;DHT22;30431;48.520;9.046;2023-01-05T06:40:19;11.10;99.90
44705;DHT22;30431;48.520;9.046;2023-01-05T06:42:48;11.10;99.90
44705;DHT22;30431;48.520;9.046;2023-01-05T06:45:16;11.00;99.90
44705;DHT22;30431;48.520;9.046;2023-01-05T06:47:43;11.10;99.90
44705;DHT22;30431;48.520;9.046;2023-01-05T06:50:10;11.10;99.90
44705;DHT22;30431;48.520;9.046;2023-01-05T06:52:37;11.10;99.90
44705;DHT22;30431;48.520;9.046;2023-01-05T06:55:10;11.10;99.90
44705;DHT22;30431;48.520;9.046;2023-01-05T06:57:39;11.10;99.90
44705;DHT22;30431;48.520;9.046;2023-01-05T07:00:09;11.10;99.90
44705;DHT22;30431;48.520;9.046;2023-01-05T07:02:37;11.10;99.90
44705;DHT22;30431;48.520;9.046;2023-01-05T07:05:14;11.10;99.90
44705;DHT22;30431;48.520;9.046;2023-01-05T07:07:44;11.10;99.90
44705;DHT22;30431;48.520;9.046;2023-01-05T07:10:11;11.10;99.90
44705;DHT22;30431;48.520;9.046;2023-01-05T07:12:38;11.10;99.90
44705;DHT22;30431;48.520;9.046;2023-01-05T07:15:08;11.10;99.90
44705;DHT22;30431;48.520;9.046;2023-01-05T07:17:41;11.10;99.90
44705;DHT22;30431;48.520;9.046;2023-01-05T07:20:08;11.00;99.90
44705;DHT22;30431;48.520;9.046;2023-01-05T07:22:39;11.00;99.90
44705;DHT22;30431;48.520;9.046;2023-01-05T07:25:07;11.00;99.90
44705;DHT22;30431;48.520;9.046;2023-01-05T07:27:39;10.90;99.90
44705;DHT22;30431;48.520;9.046;2023-01-05T07:30:09;10.80;99.90
44705;DHT22;30431;48.520;9.046;2023-01-05T07:32:38;10.80;99.90
44705;DHT22;30431;48.520;9.046;2023-01-05T07:35:08;10.80;99.90
44705;DHT22;30431;48.520;9.046;2023-01-05T07:37:35;10.70;99.90
44705;DHT22;30431;48.520;9.046;2023-01-05T07:40:02;10.60;99.90
44705;DHT22;30431;48.520;9.046;2023-01-05T07:42:29;10.60;99.90
44705;DHT22;30431;48.520;9.046;2023-01-05T07:44:57;10.60;99.90
44705;DHT22;30431;48.520;9.046;2023-01-05T07:47:24;10.50;99.90
44705;DHT22;30431;48.520;9.046;2023-01-05T07:49:54;10.50;99.90
44705;DHT22;30431;48.520;9.046;2023-01-05T07:52:21;10.50;99.90
44705;DHT22;30431;48.520;9.046;2023-01-05T07:54:48;10.40;99.90
44705;DHT22;30431;48.520;9.046;2023-01-05T07:57:17;10.40;99.90
44705;DHT22;30431;48.520;9.046;2023-01-05T07:59:44;10.30;99.90
44705;DHT22;30431;48.520;9.046;2023-01-05T08:02:12;10.30;99.90
44705;DHT22;30431;48.520;9.046;2023-01-05T08:04:43;10.30;99.90
44705;DHT22;30431;48.520;9.046;2023-01-05T08:07:11;10.30;99.90
44705;DHT22;30431;48.520;9.046;2023-01-05T08:09:40;10.30;99.90
44705;DHT22;30431;48.520;9.046;2023-01-05T08:12:28;10.30;99.90
44705;DHT22;30431;48.520;9.046;2023-01-05T08:14:58;10.30;99.90
44705;DHT22;30431;48.520;9.046;2023-01-05T08:17:28;10.40;99.90
44705;DHT22;30431;48.520;9.046;2023-01-05T08:20:00;10.40;99.90
44705;DHT22;30431;48.520;9.046;2023-01-05T08:22:27;10.30;99.90
44705;DHT22;30431;48.520;9.046;2023-01-05T08:24:54;10.40;99.90
44705;DHT22;30431;48.520;9.046;2023-01-05T08:27:24;10.40;99.90
44705;DHT22;30431;48.520;9.046;2023-01-05T08:29:51;10.40;99.90
44705;DHT22;30431;48.520;9.046;2023-01-05T08:32:18;10.40;99.90
44705;DHT22;30431;48.520;9.046;2023-01-05T08:34:47;10.50;99.90
44705;DHT22;30431;48.520;9.046;2023-01-05T08:37:21;10.50;99.90
44705;DHT22;30431;48.520;9.046;2023-01-05T08:39:50;10.50;99.90
44705;DHT22;30431;48.520;9.046;2023-01-05T08:42:22;10.60;99.90
44705;DHT22;30431;48.520;9.046;2023-01-05T08:44:57;10.60;99.90
44705;DHT22;30431;48.520;9.046;2023-01-05T08:47:49;10.70;99.90
44705;DHT22;30431;48.520;9.046;2023-01-05T08:50:17;10.70;99.90
44705;DHT22;30431;48.520;9.046;2023-01-05T08:52:49;10.80;99.90
44705;DHT22;30431;48.520;9.046;2023-01-05T08:55:16;10.90;99.90
44705;DHT22;30431;48.520;9.046;2023-01-05T08:57:43;10.90;99.90
44705;DHT22;30431;48.520;9.046;2023-01-05T09:00:11;11.00;99.90
44705;DHT22;30431;48.520;9.046;2023-01-05T09:02:39;11.00;99.90
44705;DHT22;30431;48.520;9.046;2023-01-05T09:05:06;11.10;99.90
44705;DHT22;30431;48.520;9.046;2023-01-05T09:07:33;11.20;99.90
44705;DHT22;30431;48.520;9.046;2023-01-05T09:10:00;11.30;99.90
44705;DHT22;30431;48.520;9.046;2023-01-05T09:12:34;11.40;99.90
44705;DHT22;30431;48.520;9.046;2023-01-05T09:15:02;11.50;99.90
44705;DHT22;30431;48.520;9.046;2023-01-05T09:17:33;11.50;99.90
44705;DHT22;30431;48.520;9.046;2023-01-05T09:20:02;11.60;99.90
44705;DHT22;30431;48.520;9.046;2023-01-05T09:22:33;11.60;99.90
44705;DHT22;30431;48.520;9.046;2023-01-05T09:25:02;11.60;99.90
44705;DHT22;30431;48.520;9.046;2023-01-05T09:27:30;11.50;99.90
44705;DHT22;30431;48.520;9.046;2023-01-05T09:30:00;11.50;99.90
44705;DHT22;30431;48.520;9.046;2023-01-05T09:32:27;11.40;99.90
44705;DHT22;30431;48.520;9.046;2023-01-05T09:34:56;11.50;99.90
44705;DHT22;30431;48.520;9.046;2023-01-05T09:37:25;11.50;99.90
44705;DHT22;30431;48.520;9.046;2023-01-05T09:39:55;11.60;99.90
44705;DHT22;30431;48.520;9.046;2023-01-05T09:42:23;11.60;99.90
44705;DHT22;30431;48.520;9.046;2023-01-05T09:44:59;11.70;99.90
44705;DHT22;30431;48.520;9.046;2023-01-05T09:47:42;11.80;99.90
44705;DHT22;30431;48.520;9.046;2023-01-05T09:50:20;11.90;99.90
44705;DHT22;30431;48.520;9.046;2023-01-05T09:52:51;12.10;99.90
44705;DHT22;30431;48.520;9.046;2023-01-05T09:55:23;12.10;99.90
44705;DHT22;30431;48.520;9.046;2023-01-05T09:57:58;12.20;99.90
44705;DHT22;30431;48.520;9.046;2023-01-05T10:00:27;12.20;99.90
44705;DHT22;30431;48.520;9.046;2023-01-05T10:03:15;12.30;99.90
44705;DHT22;30431;48.520;9.046;2023-01-05T10:06:12;12.40;99.90
44705;DHT22;30431;48.520;9.046;2023-01-05T10:08:45;12.50;99.90
44705;DHT22;30431;48.520;9.046;2023-01-05T10:14:25;12.60;99.90
44705;DHT22;30431;48.520;9.046;2023-01-05T10:16:57;12.60;99.90
44705;DHT22;30431;48.520;9.046;2023-01-05T10:19:50;12.70;99.90
44705;DHT22;30431;48.520;9.046;2023-01-05T10:27:53;12.60;99.90
44705;DHT22;30431;48.520;9.046;2023-01-05T10:30:57;12.60;99.90
44705;DHT22;30431;48.520;9.046;2023-01-05T10:41:49;12.60;99.90
44705;DHT22;30431;48.520;9.046;2023-01-05T10:44:32;12.50;99.90
44705;DHT22;30431;48.520;9.046;2023-01-05T10:47:08;12.50;99.90
44705;DHT22;30431;48.520;9.046;2023-01-05T10:49:36;12.60;99.90
44705;DHT22;30431;48.520;9.046;2023-01-05T10:52:10;12.60;99.90
44705;DHT22;30431;48.520;9.046;2023-01-05T10:54:47;12.50;99.90
44705;DHT22;30431;48.520;9.046;2023-01-05T10:57:37;12.50;99.90
44705;DHT22;30431;48.520;9.046;2023-01-05T11:00:20;12.40;99.90
44705;DHT22;30431;48.520;9.046;2023-01-05T11:03:05;12.30;99.90
44705;DHT22;30431;48.520;9.046;2023-01-05T11:05:35;12.30;99.90
44705;DHT22;30431;48.520;9.046;2023-01-05T11:08:06;12.30;99.90
44705;DHT22;30431;48.520;9.046;2023-01-05T11:10:59;12.40;99.90
44705;DHT22;30431;48.520;9.046;2023-01-05T11:13:41;12.40;99.90
44705;DHT22;30431;48.520;9.046;2023-01-05T11:18:53;12.40;99.90
44705;DHT22;30431;48.520;9.046;2023-01-05T11:21:27;12.50;99.90
44705;DHT22;30431;48.520;9.046;2023-01-05T11:24:30;12.60;99.90
44705;DHT22;30431;48.520;9.046;2023-01-05T11:27:02;12.70;99.90
44705;DHT22;30431;48.520;9.046;2023-01-05T11:29:31;12.80;99.90
44705;DHT22;30431;48.520;9.046;2023-01-05T11:32:05;12.70;99.90
44705;DHT22;30431;48.520;9.046;2023-01-05T11:39:52;12.60;99.90
44705;DHT22;30431;48.520;9.046;2023-01-05T11:45:21;12.50;99.90
44705;DHT22;30431;48.520;9.046;2023-01-05T11:47:52;12.50;99.90
44705;DHT22;30431;48.520;9.046;2023-01-05T11:56:19;12.70;99.90
44705;DHT22;30431;48.520;9.046;2023-01-05T11:58:48;12.70;99.90
44705;DHT22;30431;48.520;9.046;2023-01-05T12:04:16;12.60;99.90
44705;DHT22;30431;48.520;9.046;2023-01-05T12:07:16;12.50;99.90
44705;DHT22;30431;48.520;9.046;2023-01-05T12:15:38;12.40;99.90
44705;DHT22;30431;48.520;9.046;2023-01-05T12:21:16;12.40;99.90
44705;DHT22;30431;48.520;9.046;2023-01-05T12:41:23;12.70;99.90
44705;DHT22;30431;48.520;9.046;2023-01-05T12:52:33;12.60;99.90
44705;DHT22;30431;48.520;9.046;2023-01-05T12:55:22;12.60;99.90
44705;DHT22;30431;48.520;9.046;2023-01-05T12:57:56;12.60;99.90
44705;DHT22;30431;48.520;9.046;2023-01-05T13:00:31;12.50;99.90
44705;DHT22;30431;48.520;9.046;2023-01-05T13:03:03;12.40;99.90
44705;DHT22;30431;48.520;9.046;2023-01-05T13:05:50;12.30;99.90
44705;DHT22;30431;48.520;9.046;2023-01-05T13:08:34;12.30;99.90
44705;DHT22;30431;48.520;9.046;2023-01-05T13:11:17;12.30;99.90
44705;DHT22;30431;48.520;9.046;2023-01-05T13:13:51;12.40;99.90
44705;DHT22;30431;48.520;9.046;2023-01-05T13:16:29;12.30;99.90
44705;DHT22;30431;48.520;9.046;2023-01-05T13:19:31;12.30;99.90
44705;DHT22;30431;48.520;9.046;2023-01-05T13:22:03;12.30;99.90
44705;DHT22;30431;48.520;9.046;2023-01-05T13:24:35;12.20;99.90
44705;DHT22;30431;48.520;9.046;2023-01-05T13:27:04;12.20;99.90
44705;DHT22;30431;48.520;9.046;2023-01-05T13:29:45;12.30;99.90
44705;DHT22;30431;48.520;9.046;2023-01-05T13:41:04;12.30;99.90
44705;DHT22;30431;48.520;9.046;2023-01-05T13:49:18;12.30;99.90
44705;DHT22;30431;48.520;9.046;2023-01-05T13:52:33;12.30;99.90
44705;DHT22;30431;48.520;9.046;2023-01-05T13:54:56;12.20;99.90
44705;DHT22;30431;48.520;9.046;2023-01-05T13:57:37;12.10;99.90
44705;DHT22;30431;48.520;9.046;2023-01-05T14:02:41;12.00;99.90
44705;DHT22;30431;48.520;9.046;2023-01-05T14:07:51;12.00;99.90
44705;DHT22;30431;48.520;9.046;2023-01-05T14:10:26;12.10;99.90
44705;DHT22;30431;48.520;9.046;2023-01-05T14:12:54;12.10;99.90
44705;DHT22;30431;48.520;9.046;2023-01-05T14:15:43;12.10;99.90
44705;DHT22;30431;48.520;9.046;2023-01-05T14:18:49;12.20;99.90
44705;DHT22;30431;48.520;9.046;2023-01-05T14:24:40;12.20;99.90
44705;DHT22;30431;48.520;9.046;2023-01-05T14:27:21;12.20;99.90
44705;DHT22;30431;48.520;9.046;2023-01-05T14:40:45;12.00;99.90
44705;DHT22;30431;48.520;9.046;2023-01-05T14:43:28;12.00;99.90
44705;DHT22;30431;48.520;9.046;2023-01-05T14:48:57;11.90;99.90
44705;DHT22;30431;48.520;9.046;2023-01-05T14:51:27;11.90;99.90
44705;DHT22;30431;48.520;9.046;2023-01-05T14:54:04;11.80;99.90
44705;DHT22;30431;48.520;9.046;2023-01-05T14:56:35;11.80;99.90
44705;DHT22;30431;48.520;9.046;2023-01-05T14:59:20;11.80;99.90
44705;DHT22;30431;48.520;9.046;2023-01-05T15:01:58;11.70;99.90
44705;DHT22;30431;48.520;9.046;2023-01-05T15:04:31;11.70;99.90
44705;DHT22;30431;48.520;9.046;2023-01-05T15:12:56;11.50;99.90
44705;DHT22;30431;48.520;9.046;2023-01-05T15:18:08;11.40;99.90
44705;DHT22;30431;48.520;9.046;2023-01-05T15:32:23;11.10;99.90
44705;DHT22;30431;48.520;9.046;2023-01-05T15:35:27;11.10;99.90
44705;DHT22;30431;48.520;9.046;2023-01-05T15:37:55;11.10;99.90
44705;DHT22;30431;48.520;9.046;2023-01-05T15:43:01;11.00;99.90
44705;DHT22;30431;48.520;9.046;2023-01-05T15:45:34;11.00;99.90
44705;DHT22;30431;48.520;9.046;2023-01-05T15:48:18;10.90;99.90
44705;DHT22;30431;48.520;9.046;2023-01-05T15:50:52;10.90;99.90
44705;DHT22;30431;48.520;9.046;2023-01-05T15:53:26;10.80;99.90
44705;DHT22;30431;48.520;9.046;2023-01-05T15:55:56;10.80;99.90
44705;DHT22;30431;48.520;9.046;2023-01-05T15:58:31;10.70;99.90
44705;DHT22;30431;48.520;9.046;2023-01-05T16:01:18;10.70;99.90
44705;DHT22;30431;48.520;9.046;2023-01-05T16:03:46;10.70;99.90
44705;DHT22;30431;48.520;9.046;2023-01-05T16:06:25;10.70;99.90
44705;DHT22;30431;48.520;9.046;2023-01-05T16:09:06;10.60;99.90
44705;DHT22;30431;48.520;9.046;2023-01-05T16:11:42;10.60;99.90
44705;DHT22;30431;48.520;9.046;2023-01-05T16:14:26;10.60;99.90
44705;DHT22;30431;48.520;9.046;2023-01-05T16:17:03;10.60;99.90
44705;DHT22;30431;48.520;9.046;2023-01-05T16:27:19;10.50;99.90
44705;DHT22;30431;48.520;9.046;2023-01-05T16:29:47;10.50;99.90
44705;DHT22;30431;48.520;9.046;2023-01-05T16:32:53;10.40;99.90
44705;DHT22;30431;48.520;9.046;2023-01-05T16:35:28;10.50;99.90
44705;DHT22;30431;48.520;9.046;2023-01-05T16:49:36;10.50;99.90
44705;DHT22;30431;48.520;9.046;2023-01-05T16:51:46;10.50;99.90
44705;DHT22;30431;48.520;9.046;2023-01-05T16:54:34;10.50;99.90
44705;DHT22;30431;48.520;9.046;2023-01-05T16:57:30;10.50;99.90
44705;DHT22;30431;48.520;9.046;2023-01-05T17:00:01;10.50;99.90
44705;DHT22;30431;48.520;9.046;2023-01-05T17:02:44;10.50;99.90
44705;DHT22;30431;48.520;9.046;2023-01-05T17:05:25;10.50;99.90
44705;DHT22;30431;48.520;9.046;2023-01-05T17:08:19;10.50;99.90
44705;DHT22;30431;48.520;9.046;2023-01-05T17:10:49;10.50;99.90
44705;DHT22;30431;48.520;9.046;2023-01-05T17:13:19;10.60;99.90
44705;DHT22;30431;48.520;9.046;2023-01-05T17:15:53;10.50;99.90
44705;DHT22;30431;48.520;9.046;2023-01-05T17:18:22;10.50;99.90
44705;DHT22;30431;48.520;9.046;2023-01-05T17:20:51;10.50;99.90
44705;DHT22;30431;48.520;9.046;2023-01-05T17:25:46;10.50;99.90
44705;DHT22;30431;48.520;9.046;2023-01-05T17:28:13;10.40;99.90
44705;DHT22;30431;48.520;9.046;2023-01-05T17:30:41;10.40;99.90
44705;DHT22;30431;48.520;9.046;2023-01-05T17:33:09;10.40;99.90
44705;DHT22;30431;48.520;9.046;2023-01-05T17:35:38;10.40;99.90
44705;DHT22;30431;48.520;9.046;2023-01-05T17:38:05;10.30;99.90
44705;DHT22;30431;48.520;9.046;2023-01-05T17:40:34;10.30;99.90
44705;DHT22;30431;48.520;9.046;2023-01-05T17:43:09;10.30;99.90
44705;DHT22;30431;48.520;9.046;2023-01-05T17:45:45;10.30;99.90
44705;DHT22;30431;48.520;9.046;2023-01-05T17:48:13;10.20;99.90
44705;DHT22;30431;48.520;9.046;2023-01-05T17:50:45;10.20;99.90
44705;DHT22;30431;48.520;9.046;2023-01-05T17:53:12;10.20;99.90
44705;DHT22;30431;48.520;9.046;2023-01-05T17:55:43;10.20;99.90
44705;DHT22;30431;48.520;9.046;2023-01-05T17:58:14;10.20;99.90
44705;DHT22;30431;48.520;9.046;2023-01-05T18:00:46;10.20;99.90
44705;DHT22;30431;48.520;9.046;2023-01-05T18:03:17;10.20;99.90
44705;DHT22;30431;48.520;9.046;2023-01-05T18:05:51;10.20;99.90
44705;DHT22;30431;48.520;9.046;2023-01-05T18:08:21;10.20;99.90
44705;DHT22;30431;48.520;9.046;2023-01-05T18:10:48;10.20;99.90
44705;DHT22;30431;48.520;9.046;2023-01-05T18:13:15;10.20;99.90
44705;DHT22;30431;48.520;9.046;2023-01-05T18:15:48;10.20;99.90
44705;DHT22;30431;48.520;9.046;2023-01-05T18:18:19;10.20;99.90
44705;DHT22;30431;48.520;9.046;2023-01-05T18:20:50;10.10;99.90
44705;DHT22;30431;48.520;9.046;2023-01-05T18:23:18;10.10;99.90
44705;DHT22;30431;48.520;9.046;2023-01-05T18:25:46;10.00;99.90
44705;DHT22;30431;48.520;9.046;2023-01-05T18:28:13;9.90;99.90
44705;DHT22;30431;48.520;9.046;2023-01-05T18:30:40;9.80;99.90
44705;DHT22;30431;48.520;9.046;2023-01-05T18:33:10;9.80;99.90
44705;DHT22;30431;48.520;9.046;2023-01-05T18:35:41;9.90;99.90
44705;DHT22;30431;48.520;9.046;2023-01-05T18:38:11;9.90;99.90
44705;DHT22;30431;48.520;9.046;2023-01-05T18:40:39;9.90;99.90
44705;DHT22;30431;48.520;9.046;2023-01-05T18:43:06;9.90;99.90
44705;DHT22;30431;48.520;9.046;2023-01-05T18:45:38;9.90;99.90
44705;DHT22;30431;48.520;9.046;2023-01-05T18:48:09;9.90;99.90
44705;DHT22;30431;48.520;9.046;2023-01-05T18:50:40;9.90;99.90
44705;DHT22;30431;48.520;9.046;2023-01-05T18:53:08;9.90;99.90
44705;DHT22;30431;48.520;9.046;2023-01-05T18:55:39;10.00;99.90
44705;DHT22;30431;48.520;9.046;2023-01-05T18:58:08;9.90;99.90
44705;DHT22;30431;48.520;9.046;2023-01-05T19:00:42;9.80;99.90
44705;DHT22;30431;48.520;9.046;2023-01-05T19:03:12;9.80;99.90
44705;DHT22;30431;48.520;9.046;2023-01-05T19:05:41;9.70;99.90
44705;DHT22;30431;48.520;9.046;2023-01-05T19:08:10;9.60;99.90
44705;DHT22;30431;48.520;9.046;2023-01-05T19:10:38;9.60;99.90
44705;DHT22;30431;48.520;9.046;2023-01-05T19:13:06;9.60;99.90
44705;DHT22;30431;48.520;9.046;2023-01-05T19:15:35;9.60;99.90
44705;DHT22;30431;48.520;9.046;2023-01-05T19:18:05;9.60;99.90
44705;DHT22;30431;48.520;9.046;2023-01-05T19:20:32;9.60;99.90